sensor_id;sensor_type;location;lat;lon;timestamp;pressure;altitude;pressure_sealevel;temperature;humidity
64889;BME280;51386;53.082;8.816;2022-08-01T00:00:46;101252.47;;;24.96;61.93
64889;BME280;51386;53.082;8.816;2022-08-01T00:03:15;101261.69;;;25.00;62.28
64889;BME280;51386;53.082;8.816;2022-08-01T00:05:42;101265.44;;;24.99;62.26
64889;BME280;51386;53.082;8.816;2022-08-01T00:08:11;101265.44;;;24.99;62.40
64889;BME280;51386;53.082;8.816;2022-08-01T00:10:38;101256.53;;;24.99;61.69
64889;BME280;51386;53.082;8.816;2022-08-01T00:13:06;101265.69;;;24.98;62.32
64889;BME280;51386;53.082;8.816;2022-08-01T00:15:35;101265.44;;;24.99;62.28
64889;BME280;51386;53.082;8.816;2022-08-01T00:18:03;101272.47;;;25.00;62.50
64889;BME280;51386;53.082;8.816;2022-08-01T00:20:31;101272.47;;;25.00;61.68
64889;BME280;51386;53.082;8.816;2022-08-01T00:22:59;101265.97;;;25.01;61.87
64889;BME280;51386;53.082;8.816;2022-08-01T00:25:28;101271.91;;;25.03;61.84
64889;BME280;51386;53.082;8.816;2022-08-01T00:28:00;101266.53;;;25.03;62.15
64889;BME280;51386;53.082;8.816;2022-08-01T00:30:30;101265.75;;;25.03;61.73
64889;BME280;51386;53.082;8.816;2022-08-01T00:32:57;101269.22;;;25.03;62.04
64889;BME280;51386;53.082;8.816;2022-08-01T00:35:25;101272.50;;;25.05;61.57
64889;BME280;51386;53.082;8.816;2022-08-01T00:37:54;101270.34;;;25.07;61.73
64889;BME280;51386;53.082;8.816;2022-08-01T00:40:22;101275.19;;;25.05;61.12
64889;BME280;51386;53.082;8.816;2022-08-01T00:42:50;101270.88;;;25.04;61.50
64889;BME280;51386;53.082;8.816;2022-08-01T00:45:17;101267.13;;;25.05;61.32
64889;BME280;51386;53.082;8.816;2022-08-01T00:47:45;101278.94;;;25.04;61.56
64889;BME280;51386;53.082;8.816;2022-08-01T00:50:13;101270.31;;;25.02;61.02
64889;BME280;51386;53.082;8.816;2022-08-01T00:52:41;101265.19;;;25.01;61.56
64889;BME280;51386;53.082;8.816;2022-08-01T00:55:19;101275.38;;;24.99;61.00
64889;BME280;51386;53.082;8.816;2022-08-01T00:57:48;101273.50;;;24.99;61.29
64889;BME280;51386;53.082;8.816;2022-08-01T01:00:33;101280.50;;;24.95;61.14
64889;BME280;51386;53.082;8.816;2022-08-01T01:03:22;101278.84;;;24.94;60.63
64889;BME280;51386;53.082;8.816;2022-08-01T01:06:23;101283.13;;;24.90;60.57
64889;BME280;51386;53.082;8.816;2022-08-01T01:09:10;101272.03;;;24.86;61.36
64889;BME280;51386;53.082;8.816;2022-08-01T01:11:49;101275.56;;;24.87;61.14
64889;BME280;51386;53.082;8.816;2022-08-01T01:14:28;101287.41;;;24.86;60.83
64889;BME280;51386;53.082;8.816;2022-08-01T01:17:00;101282.81;;;24.86;60.58
64889;BME280;51386;53.082;8.816;2022-08-01T01:19:33;101291.16;;;24.85;60.59
64889;BME280;51386;53.082;8.816;2022-08-01T01:22:24;101288.41;;;24.80;60.96
64889;BME280;51386;53.082;8.816;2022-08-01T01:25:32;101294.81;;;24.74;60.46
64889;BME280;51386;53.082;8.816;2022-08-01T01:28:10;101295.63;;;24.74;60.91
64889;BME280;51386;53.082;8.816;2022-08-01T01:30:44;101289.41;;;24.74;60.72
64889;BME280;51386;53.082;8.816;2022-08-01T01:33:14;101298.06;;;24.76;60.77
64889;BME280;51386;53.082;8.816;2022-08-01T01:35:48;101293.16;;;24.73;60.39
64889;BME280;51386;53.082;8.816;2022-08-01T01:38:22;101294.81;;;24.74;60.54
64889;BME280;51386;53.082;8.816;2022-08-01T01:40:53;101291.03;;;24.75;60.67
64889;BME280;51386;53.082;8.816;2022-08-01T01:43:23;101296.41;;;24.75;61.02
64889;BME280;51386;53.082;8.816;2022-08-01T01:46:03;101298.56;;;24.73;60.36
64889;BME280;51386;53.082;8.816;2022-08-01T01:48:33;101289.66;;;24.72;60.92
64889;BME280;51386;53.082;8.816;2022-08-01T01:51:03;101296.13;;;24.71;60.50
64889;BME280;51386;53.082;8.816;2022-08-01T01:53:34;101300.69;;;24.71;60.88
64889;BME280;51386;53.082;8.816;2022-08-01T01:56:03;101297.44;;;24.69;60.48
64889;BME280;51386;53.082;8.816;2022-08-01T01:58:33;101301.19;;;24.68;60.97
64889;BME280;51386;53.082;8.816;2022-08-01T02:01:03;101299.59;;;24.67;61.14
64889;BME280;51386;53.082;8.816;2022-08-01T02:03:42;101299.59;;;24.67;60.85
64889;BME280;51386;53.082;8.816;2022-08-01T02:06:13;101303.34;;;24.66;61.32
64889;BME280;51386;53.082;8.816;2022-08-01T02:08:43;101303.81;;;24.63;60.95
64889;BME280;51386;53.082;8.816;2022-08-01T02:11:12;101302.78;;;24.64;61.27
64889;BME280;51386;53.082;8.816;2022-08-01T02:13:50;101304.97;;;24.67;60.94
64889;BME280;51386;53.082;8.816;2022-08-01T02:16:24;101310.34;;;24.67;61.25
64889;BME280;51386;53.082;8.816;2022-08-01T02:18:52;101307.41;;;24.68;61.62
64889;BME280;51386;53.082;8.816;2022-08-01T02:21:27;101314.09;;;24.66;61.34
64889;BME280;51386;53.082;8.816;2022-08-01T02:24:12;101312.44;;;24.60;61.69
64889;BME280;51386;53.082;8.816;2022-08-01T02:26:47;101318.38;;;24.62;61.80
64889;BME280;51386;53.082;8.816;2022-08-01T02:29:27;101313.25;;;24.60;61.42
64889;BME280;51386;53.082;8.816;2022-08-01T02:32:04;101312.66;;;24.58;61.74
64889;BME280;51386;53.082;8.816;2022-08-01T02:34:35;101309.19;;;24.58;61.20
64889;BME280;51386;53.082;8.816;2022-08-01T02:37:04;101313.97;;;24.56;61.42
64889;BME280;51386;53.082;8.816;2022-08-01T02:39:36;101309.91;;;24.53;60.99
64889;BME280;51386;53.082;8.816;2022-08-01T02:42:07;101312.88;;;24.52;61.12
64889;BME280;51386;53.082;8.816;2022-08-01T02:44:39;101313.13;;;24.50;61.75
64889;BME280;51386;53.082;8.816;2022-08-01T02:47:10;101315.00;;;24.50;61.40
64889;BME280;51386;53.082;8.816;2022-08-01T02:49:42;101313.38;;;24.49;61.46
64889;BME280;51386;53.082;8.816;2022-08-01T02:52:16;101310.69;;;24.49;61.41
64889;BME280;51386;53.082;8.816;2022-08-01T02:54:47;101313.38;;;24.49;61.10
64889;BME280;51386;53.082;8.816;2022-08-01T02:57:17;101316.66;;;24.51;61.49
64889;BME280;51386;53.082;8.816;2022-08-01T02:59:49;101313.69;;;24.52;61.18
64889;BME280;51386;53.082;8.816;2022-08-01T03:02:20;101320.13;;;24.51;61.31
64889;BME280;51386;53.082;8.816;2022-08-01T03:04:51;101318.75;;;24.49;61.19
64889;BME280;51386;53.082;8.816;2022-08-01T03:07:23;101323.09;;;24.50;61.08
64889;BME280;51386;53.082;8.816;2022-08-01T03:10:02;101327.91;;;24.48;61.13
64889;BME280;51386;53.082;8.816;2022-08-01T03:12:33;101333.78;;;24.45;61.51
64889;BME280;51386;53.082;8.816;2022-08-01T03:15:03;101338.63;;;24.43;61.35
64889;BME280;51386;53.082;8.816;2022-08-01T03:17:35;101346.94;;;24.41;61.46
64889;BME280;51386;53.082;8.816;2022-08-01T03:20:06;101343.44;;;24.41;61.22
64889;BME280;51386;53.082;8.816;2022-08-01T03:22:37;101341.81;;;24.40;61.15
64889;BME280;51386;53.082;8.816;2022-08-01T03:25:08;101345.88;;;24.42;61.22
64889;BME280;51386;53.082;8.816;2022-08-01T03:27:37;101358.78;;;24.40;60.99
64889;BME280;51386;53.082;8.816;2022-08-01T03:30:06;101352.56;;;24.40;61.24
64889;BME280;51386;53.082;8.816;2022-08-01T03:32:36;101353.88;;;24.37;60.87
64889;BME280;51386;53.082;8.816;2022-08-01T03:35:04;101360.34;;;24.36;60.88
64889;BME280;51386;53.082;8.816;2022-08-01T03:37:38;101364.34;;;24.34;60.63
64889;BME280;51386;53.082;8.816;2022-08-01T03:40:36;101356.22;;;24.29;60.32
64889;BME280;51386;53.082;8.816;2022-08-01T03:43:07;101362.16;;;24.31;60.29
64889;BME280;51386;53.082;8.816;2022-08-01T03:45:40;101352.75;;;24.33;60.47
64889;BME280;51386;53.082;8.816;2022-08-01T03:48:16;101359.47;;;24.31;60.40
64889;BME280;51386;53.082;8.816;2022-08-01T03:50:52;101359.47;;;24.31;59.82
64889;BME280;51386;53.082;8.816;2022-08-01T03:53:25;101359.47;;;24.31;59.81
64889;BME280;51386;53.082;8.816;2022-08-01T03:55:58;101361.09;;;24.32;60.26
64889;BME280;51386;53.082;8.816;2022-08-01T03:58:28;101363.53;;;24.33;59.95
64889;BME280;51386;53.082;8.816;2022-08-01T04:00:56;101368.09;;;24.33;59.49
64889;BME280;51386;53.082;8.816;2022-08-01T04:03:26;101365.16;;;24.34;59.17
64889;BME280;51386;53.082;8.816;2022-08-01T04:05:54;101366.47;;;24.32;59.48
64889;BME280;51386;53.082;8.816;2022-08-01T04:08:22;101370.22;;;24.31;59.64
64889;BME280;51386;53.082;8.816;2022-08-01T04:10:56;101368.09;;;24.33;59.49
64889;BME280;51386;53.082;8.816;2022-08-01T04:13:25;101378.38;;;24.36;59.53
64889;BME280;51386;53.082;8.816;2022-08-01T04:16:04;101374.59;;;24.37;59.53
64889;BME280;51386;53.082;8.816;2022-08-01T04:18:33;101376.78;;;24.40;59.07
64889;BME280;51386;53.082;8.816;2022-08-01T04:21:00;101386.50;;;24.41;59.51
64889;BME280;51386;53.082;8.816;2022-08-01T04:23:30;101384.88;;;24.40;59.46
64889;BME280;51386;53.082;8.816;2022-08-01T04:26:00;101390.50;;;24.38;59.14
64889;BME280;51386;53.082;8.816;2022-08-01T04:28:34;101386.94;;;24.33;59.02
64889;BME280;51386;53.082;8.816;2022-08-01T04:31:08;101391.19;;;24.29;59.46
64889;BME280;51386;53.082;8.816;2022-08-01T04:33:45;101398.16;;;24.25;59.33
64889;BME280;51386;53.082;8.816;2022-08-01T04:36:15;101401.88;;;24.23;59.69
64889;BME280;51386;53.082;8.816;2022-08-01T04:38:48;101399.69;;;24.20;59.88
64889;BME280;51386;53.082;8.816;2022-08-01T04:41:18;101406.16;;;24.19;60.03
64889;BME280;51386;53.082;8.816;2022-08-01T04:43:47;101406.38;;;24.18;59.96
64889;BME280;51386;53.082;8.816;2022-08-01T04:46:15;101410.38;;;24.15;59.97
64889;BME280;51386;53.082;8.816;2022-08-01T04:48:46;101412.50;;;24.13;59.89
64889;BME280;51386;53.082;8.816;2022-08-01T04:51:16;101410.06;;;24.12;59.94
64889;BME280;51386;53.082;8.816;2022-08-01T04:53:45;101415.94;;;24.09;59.95
64889;BME280;51386;53.082;8.816;2022-08-01T04:56:15;101418.88;;;24.07;59.85
64889;BME280;51386;53.082;8.816;2022-08-01T04:58:43;101424.25;;;24.07;60.05
64889;BME280;51386;53.082;8.816;2022-08-01T05:01:11;101413.50;;;24.07;59.84
64889;BME280;51386;53.082;8.816;2022-08-01T05:03:39;101422.97;;;24.10;59.64
64889;BME280;51386;53.082;8.816;2022-08-01T05:06:08;101424.34;;;24.12;59.89
64889;BME280;51386;53.082;8.816;2022-08-01T05:08:35;101432.16;;;24.14;59.45
64889;BME280;51386;53.082;8.816;2022-08-01T05:11:03;101434.03;;;24.13;59.54
64889;BME280;51386;53.082;8.816;2022-08-01T05:13:31;101425.94;;;24.13;59.32
64889;BME280;51386;53.082;8.816;2022-08-01T05:15:58;101424.41;;;24.17;59.56
64889;BME280;51386;53.082;8.816;2022-08-01T05:18:28;101430.94;;;24.21;59.39
64889;BME280;51386;53.082;8.816;2022-08-01T05:20:56;101434.19;;;24.23;59.48
64889;BME280;51386;53.082;8.816;2022-08-01T05:23:25;101434.19;;;24.23;59.09
64889;BME280;51386;53.082;8.816;2022-08-01T05:26:10;101443.31;;;24.22;59.16
64889;BME280;51386;53.082;8.816;2022-08-01T05:28:40;101450.31;;;24.23;58.84
64889;BME280;51386;53.082;8.816;2022-08-01T05:31:08;101449.50;;;24.23;59.38
64889;BME280;51386;53.082;8.816;2022-08-01T05:33:35;101455.16;;;24.21;58.84
64889;BME280;51386;53.082;8.816;2022-08-01T05:36:04;101458.06;;;24.20;58.87
64889;BME280;51386;53.082;8.816;2022-08-01T05:38:34;101466.66;;;24.17;58.96
64889;BME280;51386;53.082;8.816;2022-08-01T05:41:01;101470.38;;;24.16;58.71
64889;BME280;51386;53.082;8.816;2022-08-01T05:43:28;101470.09;;;24.12;59.07
64889;BME280;51386;53.082;8.816;2022-08-01T05:45:56;101468.69;;;24.10;59.00
64889;BME280;51386;53.082;8.816;2022-08-01T05:48:24;101482.84;;;24.05;59.14
64889;BME280;51386;53.082;8.816;2022-08-01T05:50:51;101479.00;;;24.01;58.79
64889;BME280;51386;53.082;8.816;2022-08-01T05:53:25;101477.38;;;24.00;58.97
64889;BME280;51386;53.082;8.816;2022-08-01T05:55:53;101483.91;;;24.04;59.55
64889;BME280;51386;53.082;8.816;2022-08-01T05:58:21;101480.75;;;24.07;58.62
64889;BME280;51386;53.082;8.816;2022-08-01T06:00:49;101488.00;;;24.07;58.71
64889;BME280;51386;53.082;8.816;2022-08-01T06:03:16;101485.53;;;24.05;58.72
64889;BME280;51386;53.082;8.816;2022-08-01T06:05:43;101492.56;;;24.06;58.87
64889;BME280;51386;53.082;8.816;2022-08-01T06:08:11;101491.00;;;24.10;58.50
64889;BME280;51386;53.082;8.816;2022-08-01T06:10:38;101498.59;;;24.13;58.57
64889;BME280;51386;53.082;8.816;2022-08-01T06:13:07;101500.25;;;24.14;58.29
64889;BME280;51386;53.082;8.816;2022-08-01T06:15:34;101512.63;;;24.15;58.14
64889;BME280;51386;53.082;8.816;2022-08-01T06:18:02;101504.81;;;24.14;57.94
64889;BME280;51386;53.082;8.816;2022-08-01T06:20:30;101506.69;;;24.13;58.12
64889;BME280;51386;53.082;8.816;2022-08-01T06:22:58;101506.69;;;24.13;58.04
64889;BME280;51386;53.082;8.816;2022-08-01T06:25:27;101516.69;;;24.18;57.88
64889;BME280;51386;53.082;8.816;2022-08-01T06:27:54;101511.66;;;24.21;57.46
64889;BME280;51386;53.082;8.816;2022-08-01T06:30:23;101525.69;;;24.23;57.33
64889;BME280;51386;53.082;8.816;2022-08-01T06:32:51;101522.16;;;24.23;56.82
64889;BME280;51386;53.082;8.816;2022-08-01T06:35:24;101535.88;;;24.21;56.31
64889;BME280;51386;53.082;8.816;2022-08-01T06:37:52;101538.56;;;24.21;55.92
64889;BME280;51386;53.082;8.816;2022-08-01T06:40:23;101537.25;;;24.24;55.66
64889;BME280;51386;53.082;8.816;2022-08-01T06:42:50;101533.66;;;24.18;55.34
64889;BME280;51386;53.082;8.816;2022-08-01T06:45:18;101534.16;;;24.15;54.77
64889;BME280;51386;53.082;8.816;2022-08-01T06:47:47;101538.97;;;24.13;55.31
64889;BME280;51386;53.082;8.816;2022-08-01T06:50:17;101541.91;;;24.12;54.95
64889;BME280;51386;53.082;8.816;2022-08-01T06:52:45;101543.78;;;24.11;55.48
64889;BME280;51386;53.082;8.816;2022-08-01T06:55:12;101540.53;;;24.09;55.22
64889;BME280;51386;53.082;8.816;2022-08-01T06:57:47;101546.38;;;24.06;54.92
64889;BME280;51386;53.082;8.816;2022-08-01T07:00:16;101544.72;;;24.05;55.37
64889;BME280;51386;53.082;8.816;2022-08-01T07:02:47;101550.13;;;24.05;55.04
64889;BME280;51386;53.082;8.816;2022-08-01T07:05:14;101541.00;;;24.06;54.35
64889;BME280;51386;53.082;8.816;2022-08-01T07:07:42;101551.28;;;24.09;54.82
64889;BME280;51386;53.082;8.816;2022-08-01T07:10:10;101545.16;;;24.14;54.92
64889;BME280;51386;53.082;8.816;2022-08-01T07:12:37;101541.19;;;24.16;54.49
64889;BME280;51386;53.082;8.816;2022-08-01T07:15:07;101542.56;;;24.19;54.12
64889;BME280;51386;53.082;8.816;2022-08-01T07:17:37;101539.63;;;24.20;54.14
64889;BME280;51386;53.082;8.816;2022-08-01T07:20:10;101536.69;;;24.22;53.40
64889;BME280;51386;53.082;8.816;2022-08-01T07:22:40;101539.13;;;24.23;53.24
64889;BME280;51386;53.082;8.816;2022-08-01T07:25:08;101545.09;;;24.26;53.22
64889;BME280;51386;53.082;8.816;2022-08-01T07:27:37;101539.69;;;24.26;53.03
64889;BME280;51386;53.082;8.816;2022-08-01T07:30:06;101548.13;;;24.29;52.88
64889;BME280;51386;53.082;8.816;2022-08-01T07:32:33;101552.09;;;24.27;52.80
64889;BME280;51386;53.082;8.816;2022-08-01T07:35:02;101557.50;;;24.27;52.65
64889;BME280;51386;53.082;8.816;2022-08-01T07:37:31;101560.75;;;24.29;53.36
64889;BME280;51386;53.082;8.816;2022-08-01T07:40:16;101568.56;;;24.30;52.92
64889;BME280;51386;53.082;8.816;2022-08-01T07:42:44;101567.25;;;24.33;52.56
64889;BME280;51386;53.082;8.816;2022-08-01T07:45:13;101576.41;;;24.32;52.33
64889;BME280;51386;53.082;8.816;2022-08-01T07:47:42;101583.41;;;24.33;52.48
64889;BME280;51386;53.082;8.816;2022-08-01T07:50:09;101584.06;;;24.40;52.75
64889;BME280;51386;53.082;8.816;2022-08-01T07:52:38;101586.03;;;24.44;51.51
64889;BME280;51386;53.082;8.816;2022-08-01T07:55:08;101593.34;;;24.49;50.48
64889;BME280;51386;53.082;8.816;2022-08-01T07:57:36;101593.97;;;24.51;50.11
64889;BME280;51386;53.082;8.816;2022-08-01T08:00:05;101590.75;;;24.54;50.13
64889;BME280;51386;53.082;8.816;2022-08-01T08:02:34;101587.16;;;24.65;50.30
64889;BME280;51386;53.082;8.816;2022-08-01T08:05:02;101593.88;;;24.79;50.20
64889;BME280;51386;53.082;8.816;2022-08-01T08:07:31;101598.91;;;24.92;50.27
64889;BME280;51386;53.082;8.816;2022-08-01T08:10:01;101597.41;;;25.01;49.31
64889;BME280;51386;53.082;8.816;2022-08-01T08:12:28;101602.31;;;25.04;49.14
64889;BME280;51386;53.082;8.816;2022-08-01T08:14:56;101598.03;;;25.08;49.92
64889;BME280;51386;53.082;8.816;2022-08-01T08:17:25;101609.59;;;25.69;49.23
64889;BME280;51386;53.082;8.816;2022-08-01T08:19:58;101603.13;;;26.86;46.29
64889;BME280;51386;53.082;8.816;2022-08-01T08:22:26;101599.84;;;28.13;44.13
64889;BME280;51386;53.082;8.816;2022-08-01T08:24:53;101603.16;;;29.45;41.91
64889;BME280;51386;53.082;8.816;2022-08-01T08:27:28;101606.75;;;30.57;40.01
64889;BME280;51386;53.082;8.816;2022-08-01T08:29:55;101611.03;;;30.92;38.59
64889;BME280;51386;53.082;8.816;2022-08-01T08:32:23;101610.13;;;30.72;37.62
64889;BME280;51386;53.082;8.816;2022-08-01T08:34:50;101613.22;;;30.27;37.46
64889;BME280;51386;53.082;8.816;2022-08-01T08:37:17;101619.06;;;29.67;37.86
64889;BME280;51386;53.082;8.816;2022-08-01T08:39:46;101625.50;;;29.07;38.81
64889;BME280;51386;53.082;8.816;2022-08-01T08:42:14;101630.19;;;28.61;39.47
64889;BME280;51386;53.082;8.816;2022-08-01T08:44:43;101622.06;;;28.31;40.13
64889;BME280;51386;53.082;8.816;2022-08-01T08:47:14;101628.00;;;28.02;40.21
64889;BME280;51386;53.082;8.816;2022-08-01T08:49:49;101637.47;;;28.25;40.68
64889;BME280;51386;53.082;8.816;2022-08-01T08:52:20;101632.25;;;29.24;38.92
64889;BME280;51386;53.082;8.816;2022-08-01T08:54:50;101645.13;;;30.50;36.89
64889;BME280;51386;53.082;8.816;2022-08-01T08:57:20;101640.06;;;31.67;33.88
64889;BME280;51386;53.082;8.816;2022-08-01T08:59:50;101638.84;;;32.48;32.44
64889;BME280;51386;53.082;8.816;2022-08-01T09:02:19;101641.03;;;32.51;32.86
64889;BME280;51386;53.082;8.816;2022-08-01T09:04:48;101642.78;;;32.42;32.22
64889;BME280;51386;53.082;8.816;2022-08-01T09:07:16;101640.22;;;32.50;32.66
64889;BME280;51386;53.082;8.816;2022-08-01T09:09:46;101641.03;;;32.64;31.10
64889;BME280;51386;53.082;8.816;2022-08-01T09:12:18;101639.38;;;32.68;31.43
64889;BME280;51386;53.082;8.816;2022-08-01T09:14:47;101635.59;;;33.10;31.26
64889;BME280;51386;53.082;8.816;2022-08-01T09:17:18;101639.03;;;33.57;30.52
64889;BME280;51386;53.082;8.816;2022-08-01T09:19:47;101642.38;;;33.54;30.18
64889;BME280;51386;53.082;8.816;2022-08-01T09:22:17;101649.84;;;33.34;30.32
64889;BME280;51386;53.082;8.816;2022-08-01T09:24:59;101647.31;;;33.24;30.46
64889;BME280;51386;53.082;8.816;2022-08-01T09:27:26;101651.22;;;33.46;29.90
64889;BME280;51386;53.082;8.816;2022-08-01T09:30:07;101649.22;;;33.24;29.72
64889;BME280;51386;53.082;8.816;2022-08-01T09:32:54;101662.03;;;32.96;30.90
64889;BME280;51386;53.082;8.816;2022-08-01T09:35:26;101666.16;;;32.80;30.70
64889;BME280;51386;53.082;8.816;2022-08-01T09:38:17;101667.47;;;32.50;30.25
64889;BME280;51386;53.082;8.816;2022-08-01T09:40:54;101671.78;;;33.16;29.85
64889;BME280;51386;53.082;8.816;2022-08-01T09:43:27;101670.06;;;34.10;28.73
64889;BME280;51386;53.082;8.816;2022-08-01T09:45:55;101672.13;;;35.02;27.41
64889;BME280;51386;53.082;8.816;2022-08-01T09:48:26;101674.31;;;35.13;27.19
64889;BME280;51386;53.082;8.816;2022-08-01T09:50:58;101676.22;;;35.52;26.87
64889;BME280;51386;53.082;8.816;2022-08-01T09:53:45;101679.22;;;35.98;25.46
64889;BME280;51386;53.082;8.816;2022-08-01T09:56:20;101690.19;;;36.50;24.57
64889;BME280;51386;53.082;8.816;2022-08-01T09:58:51;101681.56;;;37.23;23.17
64889;BME280;51386;53.082;8.816;2022-08-01T10:01:26;101674.38;;;37.69;23.54
64889;BME280;51386;53.082;8.816;2022-08-01T10:04:09;101685.25;;;38.07;23.22
64889;BME280;51386;53.082;8.816;2022-08-01T10:06:39;101679.97;;;38.22;23.10
64889;BME280;51386;53.082;8.816;2022-08-01T10:09:13;101683.88;;;38.54;22.92
64889;BME280;51386;53.082;8.816;2022-08-01T10:11:42;101678.56;;;38.37;21.64
64889;BME280;51386;53.082;8.816;2022-08-01T10:14:14;101676.81;;;38.12;22.11
64889;BME280;51386;53.082;8.816;2022-08-01T10:16:45;101681.56;;;38.23;22.27
64889;BME280;51386;53.082;8.816;2022-08-01T10:19:26;101692.47;;;38.97;21.82
64889;BME280;51386;53.082;8.816;2022-08-01T10:21:57;101681.72;;;39.41;21.07
64889;BME280;51386;53.082;8.816;2022-08-01T10:24:30;101676.28;;;39.56;20.86
64889;BME280;51386;53.082;8.816;2022-08-01T10:27:08;101679.84;;;39.81;20.56
64889;BME280;51386;53.082;8.816;2022-08-01T10:29:46;101682.75;;;39.48;20.19
64889;BME280;51386;53.082;8.816;2022-08-01T10:32:35;101684.84;;;39.39;20.53
64889;BME280;51386;53.082;8.816;2022-08-01T10:35:08;101688.50;;;39.55;20.37
64889;BME280;51386;53.082;8.816;2022-08-01T10:37:42;101689.34;;;40.08;20.02
64889;BME280;51386;53.082;8.816;2022-08-01T10:40:19;101687.63;;;40.31;19.11
64889;BME280;51386;53.082;8.816;2022-08-01T10:43:03;101691.22;;;39.92;19.79
64889;BME280;51386;53.082;8.816;2022-08-01T10:45:32;101684.66;;;39.84;20.20
64889;BME280;51386;53.082;8.816;2022-08-01T10:48:09;101683.63;;;39.88;20.16
64889;BME280;51386;53.082;8.816;2022-08-01T10:50:44;101688.72;;;39.38;20.43
64889;BME280;51386;53.082;8.816;2022-08-01T10:53:17;101681.78;;;38.39;21.07
64889;BME280;51386;53.082;8.816;2022-08-01T10:56:00;101687.94;;;37.45;21.97
64889;BME280;51386;53.082;8.816;2022-08-01T10:58:32;101700.66;;;36.56;22.40
64889;BME280;51386;53.082;8.816;2022-08-01T11:01:21;101690.25;;;35.51;23.09
64889;BME280;51386;53.082;8.816;2022-08-01T11:04:07;101695.53;;;34.55;24.37
64889;BME280;51386;53.082;8.816;2022-08-01T11:07:05;101691.31;;;33.77;25.88
64889;BME280;51386;53.082;8.816;2022-08-01T11:09:42;101686.25;;;33.30;26.48
64889;BME280;51386;53.082;8.816;2022-08-01T11:12:18;101704.34;;;32.80;27.83
64889;BME280;51386;53.082;8.816;2022-08-01T11:15:18;101701.16;;;32.22;27.75
64889;BME280;51386;53.082;8.816;2022-08-01T11:17:59;101694.16;;;31.97;28.71
64889;BME280;51386;53.082;8.816;2022-08-01T11:20:30;101696.56;;;31.80;28.11
64889;BME280;51386;53.082;8.816;2022-08-01T11:23:27;101696.94;;;31.50;29.28
64889;BME280;51386;53.082;8.816;2022-08-01T11:26:15;101700.28;;;31.42;29.52
64889;BME280;51386;53.082;8.816;2022-08-01T11:31:47;101696.50;;;31.38;29.40
64889;BME280;51386;53.082;8.816;2022-08-01T11:34:16;101697.72;;;31.27;29.99
64889;BME280;51386;53.082;8.816;2022-08-01T11:36:43;101696.13;;;31.26;29.46
64889;BME280;51386;53.082;8.816;2022-08-01T11:39:27;101701.09;;;31.19;29.09
64889;BME280;51386;53.082;8.816;2022-08-01T11:42:19;101705.16;;;30.93;29.83
64889;BME280;51386;53.082;8.816;2022-08-01T11:44:50;101697.06;;;30.83;30.22
64889;BME280;51386;53.082;8.816;2022-08-01T11:47:45;101700.47;;;30.64;30.27
64889;BME280;51386;53.082;8.816;2022-08-01T11:50:35;101702.50;;;30.49;30.30
64889;BME280;51386;53.082;8.816;2022-08-01T11:53:07;101697.16;;;30.39;31.09
64889;BME280;51386;53.082;8.816;2022-08-01T11:55:45;101708.91;;;30.24;31.24
64889;BME280;51386;53.082;8.816;2022-08-01T11:58:22;101707.00;;;30.25;31.58
64889;BME280;51386;53.082;8.816;2022-08-01T12:00:58;101710.31;;;30.17;31.40
64889;BME280;51386;53.082;8.816;2022-08-01T12:03:31;101716.03;;;30.10;31.67
64889;BME280;51386;53.082;8.816;2022-08-01T12:06:00;101715.53;;;30.08;30.81
64889;BME280;51386;53.082;8.816;2022-08-01T12:08:30;101712.31;;;30.01;30.69
64889;BME280;51386;53.082;8.816;2022-08-01T12:11:05;101717.00;;;29.90;30.95
64889;BME280;51386;53.082;8.816;2022-08-01T12:13:40;101715.13;;;29.81;30.77
64889;BME280;51386;53.082;8.816;2022-08-01T12:16:10;101715.06;;;29.91;31.12
64889;BME280;51386;53.082;8.816;2022-08-01T12:18:39;101709.75;;;30.20;31.06
64889;BME280;51386;53.082;8.816;2022-08-01T12:21:07;101714.28;;;30.39;31.00
64889;BME280;51386;53.082;8.816;2022-08-01T12:23:35;101716.47;;;30.37;30.72
64889;BME280;51386;53.082;8.816;2022-08-01T12:26:03;101716.19;;;30.34;30.60
64889;BME280;51386;53.082;8.816;2022-08-01T12:28:39;101710.75;;;30.34;31.05
64889;BME280;51386;53.082;8.816;2022-08-01T12:31:06;101710.50;;;30.35;30.81
64889;BME280;51386;53.082;8.816;2022-08-01T12:33:34;101706.66;;;30.36;31.40
64889;BME280;51386;53.082;8.816;2022-08-01T12:36:01;101710.84;;;30.57;30.95
64889;BME280;51386;53.082;8.816;2022-08-01T12:38:30;101717.59;;;30.99;30.25
64889;BME280;51386;53.082;8.816;2022-08-01T12:41:00;101720.91;;;31.48;29.08
64889;BME280;51386;53.082;8.816;2022-08-01T12:43:31;101720.34;;;31.75;28.74
64889;BME280;51386;53.082;8.816;2022-08-01T12:46:02;101712.22;;;31.70;27.98
64889;BME280;51386;53.082;8.816;2022-08-01T12:48:31;101720.44;;;31.41;28.85
64889;BME280;51386;53.082;8.816;2022-08-01T12:50:59;101719.59;;;31.17;28.50
64889;BME280;51386;53.082;8.816;2022-08-01T12:53:33;101725.59;;;30.90;28.81
64889;BME280;51386;53.082;8.816;2022-08-01T12:56:09;101724.91;;;30.69;29.92
64889;BME280;51386;53.082;8.816;2022-08-01T12:58:39;101718.00;;;30.48;29.33
64889;BME280;51386;53.082;8.816;2022-08-01T13:01:10;101716.53;;;30.22;29.99
64889;BME280;51386;53.082;8.816;2022-08-01T13:03:39;101723.13;;;30.11;29.95
64889;BME280;51386;53.082;8.816;2022-08-01T13:06:11;101716.16;;;29.95;30.73
64889;BME280;51386;53.082;8.816;2022-08-01T13:08:40;101719.72;;;29.85;30.71
64889;BME280;51386;53.082;8.816;2022-08-01T13:11:10;101729.50;;;29.81;30.59
64889;BME280;51386;53.082;8.816;2022-08-01T13:13:45;101728.97;;;29.74;30.57
64889;BME280;51386;53.082;8.816;2022-08-01T13:16:17;101724.97;;;29.62;30.70
64889;BME280;51386;53.082;8.816;2022-08-01T13:19:05;101725.81;;;29.52;31.41